sensor_id;sensor_type;location;lat;lon;timestamp;temperature;humidity
66670;DHT22;53568;52.164;4.472;2022-12-18T00:01:31;-0.53;80.59
66670;DHT22;53568;52.164;4.472;2022-12-18T00:03:57;-0.48;80.66
66670;DHT22;53568;52.164;4.472;2022-12-18T00:06:25;-0.48;80.51
66670;DHT22;53568;52.164;4.472;2022-12-18T00:08:51;-0.55;80.57
66670;DHT22;53568;52.164;4.472;2022-12-18T00:11:19;-0.43;80.42
66670;DHT22;53568;52.164;4.472;2022-12-18T00:13:45;-0.46;80.60
66670;DHT22;53568;52.164;4.472;2022-12-18T00:16:14;-0.59;80.73
66670;DHT22;53568;52.164;4.472;2022-12-18T00:18:41;-0.56;80.75
66670;DHT22;53568;52.164;4.472;2022-12-18T00:21:09;-0.48;80.28
66670;DHT22;53568;52.164;4.472;2022-12-18T00:23:37;-0.49;80.27
66670;DHT22;53568;52.164;4.472;2022-12-18T00:26:07;-0.52;80.30
66670;DHT22;53568;52.164;4.472;2022-12-18T00:28:34;-0.62;80.39
66670;DHT22;53568;52.164;4.472;2022-12-18T00:31:10;-0.62;80.40
66670;DHT22;53568;52.164;4.472;2022-12-18T00:33:37;-0.52;80.11
66670;DHT22;53568;52.164;4.472;2022-12-18T00:36:12;-0.68;80.41
66670;DHT22;53568;52.164;4.472;2022-12-18T00:38:39;-0.79;80.81
66670;DHT22;53568;52.164;4.472;2022-12-18T00:41:06;-0.69;80.94
66670;DHT22;53568;52.164;4.472;2022-12-18T00:43:32;-0.83;80.95
66670;DHT22;53568;52.164;4.472;2022-12-18T00:45:58;-0.77;80.90
66670;DHT22;53568;52.164;4.472;2022-12-18T00:48:23;-0.82;81.09
66670;DHT22;53568;52.164;4.472;2022-12-18T00:50:50;-0.75;80.99
66670;DHT22;53568;52.164;4.472;2022-12-18T00:53:15;-0.68;80.99
66670;DHT22;53568;52.164;4.472;2022-12-18T00:55:42;-0.70;81.15
66670;DHT22;53568;52.164;4.472;2022-12-18T00:58:09;-0.63;81.11
66670;DHT22;53568;52.164;4.472;2022-12-18T01:00:35;-0.62;81.17
66670;DHT22;53568;52.164;4.472;2022-12-18T01:03:01;-0.61;81.20
66670;DHT22;53568;52.164;4.472;2022-12-18T01:05:26;-0.58;80.88
66670;DHT22;53568;52.164;4.472;2022-12-18T01:07:52;-0.52;80.74
66670;DHT22;53568;52.164;4.472;2022-12-18T01:10:18;-0.42;80.39
66670;DHT22;53568;52.164;4.472;2022-12-18T01:12:43;-0.52;80.52
66670;DHT22;53568;52.164;4.472;2022-12-18T01:15:11;-0.59;80.59
66670;DHT22;53568;52.164;4.472;2022-12-18T01:17:37;-0.58;80.45
66670;DHT22;53568;52.164;4.472;2022-12-18T01:20:03;-0.59;80.48
66670;DHT22;53568;52.164;4.472;2022-12-18T01:22:29;-0.69;80.45
66670;DHT22;53568;52.164;4.472;2022-12-18T01:24:54;-0.92;81.01
66670;DHT22;53568;52.164;4.472;2022-12-18T01:27:20;-0.73;80.46
66670;DHT22;53568;52.164;4.472;2022-12-18T01:29:45;-0.76;80.71
66670;DHT22;53568;52.164;4.472;2022-12-18T01:32:11;-0.79;80.67
66670;DHT22;53568;52.164;4.472;2022-12-18T01:34:37;-0.96;80.85
66670;DHT22;53568;52.164;4.472;2022-12-18T01:37:04;-0.83;80.99
66670;DHT22;53568;52.164;4.472;2022-12-18T01:39:30;-0.65;80.43
66670;DHT22;53568;52.164;4.472;2022-12-18T01:41:58;-0.70;80.38
66670;DHT22;53568;52.164;4.472;2022-12-18T01:45:05;-0.92;80.46
66670;DHT22;53568;52.164;4.472;2022-12-18T01:47:41;-1.09;80.60
66670;DHT22;53568;52.164;4.472;2022-12-18T01:53:15;-1.11;81.04
66670;DHT22;53568;52.164;4.472;2022-12-18T01:55:49;-1.17;81.43
66670;DHT22;53568;52.164;4.472;2022-12-18T01:58:17;-1.21;81.79
66670;DHT22;53568;52.164;4.472;2022-12-18T02:00:43;-1.13;81.47
66670;DHT22;53568;52.164;4.472;2022-12-18T02:03:10;-1.00;81.04
66670;DHT22;53568;52.164;4.472;2022-12-18T02:06:06;-1.07;81.33
66670;DHT22;53568;52.164;4.472;2022-12-18T02:08:51;-1.10;81.27
66670;DHT22;53568;52.164;4.472;2022-12-18T02:11:35;-1.07;81.13
66670;DHT22;53568;52.164;4.472;2022-12-18T02:14:17;-1.06;81.33
66670;DHT22;53568;52.164;4.472;2022-12-18T02:27:33;-1.01;81.16
66670;DHT22;53568;52.164;4.472;2022-12-18T02:30:02;-0.96;81.07
66670;DHT22;53568;52.164;4.472;2022-12-18T02:32:34;-1.01;80.78
66670;DHT22;53568;52.164;4.472;2022-12-18T02:35:05;-1.09;80.73
66670;DHT22;53568;52.164;4.472;2022-12-18T02:37:34;-1.16;80.37
66670;DHT22;53568;52.164;4.472;2022-12-18T02:40:03;-1.17;80.54
66670;DHT22;53568;52.164;4.472;2022-12-18T02:42:29;-1.26;80.88
66670;DHT22;53568;52.164;4.472;2022-12-18T02:44:55;-1.24;81.07
66670;DHT22;53568;52.164;4.472;2022-12-18T02:47:24;-1.13;80.71
66670;DHT22;53568;52.164;4.472;2022-12-18T02:50:13;-1.23;80.62
66670;DHT22;53568;52.164;4.472;2022-12-18T02:56:01;-1.27;81.20
66670;DHT22;53568;52.164;4.472;2022-12-18T03:04:04;-1.31;80.99
66670;DHT22;53568;52.164;4.472;2022-12-18T03:06:37;-1.26;80.95
66670;DHT22;53568;52.164;4.472;2022-12-18T03:09:10;-1.17;80.81
66670;DHT22;53568;52.164;4.472;2022-12-18T03:11:41;-1.19;80.40
66670;DHT22;53568;52.164;4.472;2022-12-18T03:14:30;-1.20;80.71
66670;DHT22;53568;52.164;4.472;2022-12-18T03:17:02;-1.21;80.82
66670;DHT22;53568;52.164;4.472;2022-12-18T03:19:31;-1.17;80.53
66670;DHT22;53568;52.164;4.472;2022-12-18T03:22:00;-1.16;80.51
66670;DHT22;53568;52.164;4.472;2022-12-18T03:24:31;-1.16;80.59
66670;DHT22;53568;52.164;4.472;2022-12-18T03:27:06;-1.10;80.08
66670;DHT22;53568;52.164;4.472;2022-12-18T03:32:13;-1.40;79.87
66670;DHT22;53568;52.164;4.472;2022-12-18T03:34:43;-1.48;80.15
66670;DHT22;53568;52.164;4.472;2022-12-18T03:37:11;-1.54;80.36
66670;DHT22;53568;52.164;4.472;2022-12-18T03:39:37;-1.55;80.50
66670;DHT22;53568;52.164;4.472;2022-12-18T03:47:24;-1.34;79.56
66670;DHT22;53568;52.164;4.472;2022-12-18T03:53:05;-1.53;79.50
66670;DHT22;53568;52.164;4.472;2022-12-18T03:55:36;-1.44;79.56
66670;DHT22;53568;52.164;4.472;2022-12-18T03:58:05;-1.46;79.22
66670;DHT22;53568;52.164;4.472;2022-12-18T04:00:34;-1.54;79.58
66670;DHT22;53568;52.164;4.472;2022-12-18T04:03:02;-1.65;79.88
66670;DHT22;53568;52.164;4.472;2022-12-18T04:05:29;-1.53;79.88
66670;DHT22;53568;52.164;4.472;2022-12-18T04:07:56;-1.33;79.60
66670;DHT22;53568;52.164;4.472;2022-12-18T04:10:22;-1.31;79.05
66670;DHT22;53568;52.164;4.472;2022-12-18T04:12:48;-1.31;78.93
66670;DHT22;53568;52.164;4.472;2022-12-18T04:15:14;-1.29;79.08
66670;DHT22;53568;52.164;4.472;2022-12-18T04:17:48;-1.19;78.77
66670;DHT22;53568;52.164;4.472;2022-12-18T04:20:14;-1.20;78.20
66670;DHT22;53568;52.164;4.472;2022-12-18T04:22:40;-1.29;78.15
66670;DHT22;53568;52.164;4.472;2022-12-18T04:25:05;-1.46;78.21
66670;DHT22;53568;52.164;4.472;2022-12-18T04:27:31;-1.60;78.57
66670;DHT22;53568;52.164;4.472;2022-12-18T04:29:56;-1.55;78.61
66670;DHT22;53568;52.164;4.472;2022-12-18T04:32:22;-1.46;78.16
66670;DHT22;53568;52.164;4.472;2022-12-18T04:34:47;-1.47;78.37
66670;DHT22;53568;52.164;4.472;2022-12-18T04:37:13;-1.44;78.56
66670;DHT22;53568;52.164;4.472;2022-12-18T04:39:39;-1.40;78.53
66670;DHT22;53568;52.164;4.472;2022-12-18T04:42:04;-1.37;78.02
66670;DHT22;53568;52.164;4.472;2022-12-18T04:44:30;-1.37;78.30
66670;DHT22;53568;52.164;4.472;2022-12-18T04:46:55;-1.27;78.12
66670;DHT22;53568;52.164;4.472;2022-12-18T04:49:21;-1.24;78.05
66670;DHT22;53568;52.164;4.472;2022-12-18T04:51:47;-1.20;77.79
66670;DHT22;53568;52.164;4.472;2022-12-18T04:54:12;-1.20;77.69
66670;DHT22;53568;52.164;4.472;2022-12-18T04:56:38;-1.14;77.34
66670;DHT22;53568;52.164;4.472;2022-12-18T04:59:03;-1.17;76.86
66670;DHT22;53568;52.164;4.472;2022-12-18T05:01:29;-1.44;76.63
66670;DHT22;53568;52.164;4.472;2022-12-18T05:03:54;-1.46;76.98
66670;DHT22;53568;52.164;4.472;2022-12-18T05:06:20;-1.57;77.45
66670;DHT22;53568;52.164;4.472;2022-12-18T05:08:45;-1.55;77.42
66670;DHT22;53568;52.164;4.472;2022-12-18T05:11:14;-1.50;77.47
66670;DHT22;53568;52.164;4.472;2022-12-18T05:13:44;-1.41;77.55
66670;DHT22;53568;52.164;4.472;2022-12-18T05:16:11;-1.50;77.32
66670;DHT22;53568;52.164;4.472;2022-12-18T05:18:37;-1.46;77.19
66670;DHT22;53568;52.164;4.472;2022-12-18T05:21:03;-1.48;77.10
66670;DHT22;53568;52.164;4.472;2022-12-18T05:23:29;-1.46;77.16
66670;DHT22;53568;52.164;4.472;2022-12-18T05:25:57;-1.48;76.93
66670;DHT22;53568;52.164;4.472;2022-12-18T05:28:25;-1.43;76.99
66670;DHT22;53568;52.164;4.472;2022-12-18T05:30:53;-1.43;76.28
66670;DHT22;53568;52.164;4.472;2022-12-18T05:33:20;-1.48;76.38
66670;DHT22;53568;52.164;4.472;2022-12-18T05:35:51;-1.51;75.99
66670;DHT22;53568;52.164;4.472;2022-12-18T05:38:18;-1.67;76.49
66670;DHT22;53568;52.164;4.472;2022-12-18T05:40:43;-1.64;76.25
66670;DHT22;53568;52.164;4.472;2022-12-18T05:43:10;-1.67;76.40
66670;DHT22;53568;52.164;4.472;2022-12-18T05:45:39;-1.71;76.18
66670;DHT22;53568;52.164;4.472;2022-12-18T05:48:05;-1.74;76.22
66670;DHT22;53568;52.164;4.472;2022-12-18T05:50:37;-1.72;76.25
66670;DHT22;53568;52.164;4.472;2022-12-18T05:53:04;-1.72;76.48
66670;DHT22;53568;52.164;4.472;2022-12-18T05:55:35;-1.61;76.31
66670;DHT22;53568;52.164;4.472;2022-12-18T05:58:03;-1.57;76.17
66670;DHT22;53568;52.164;4.472;2022-12-18T06:00:29;-1.54;76.14
66670;DHT22;53568;52.164;4.472;2022-12-18T06:02:55;-1.50;75.77
66670;DHT22;53568;52.164;4.472;2022-12-18T06:05:21;-1.47;75.58
66670;DHT22;53568;52.164;4.472;2022-12-18T06:07:46;-1.51;75.55
66670;DHT22;53568;52.164;4.472;2022-12-18T06:10:12;-1.57;75.60
66670;DHT22;53568;52.164;4.472;2022-12-18T06:12:38;-1.60;75.66
66670;DHT22;53568;52.164;4.472;2022-12-18T06:15:04;-1.58;75.47
66670;DHT22;53568;52.164;4.472;2022-12-18T06:17:30;-1.60;75.36
66670;DHT22;53568;52.164;4.472;2022-12-18T06:19:56;-1.54;75.05
66670;DHT22;53568;52.164;4.472;2022-12-18T06:22:21;-1.48;74.77
66670;DHT22;53568;52.164;4.472;2022-12-18T06:24:47;-1.54;74.76
66670;DHT22;53568;52.164;4.472;2022-12-18T06:27:13;-1.55;75.05
66670;DHT22;53568;52.164;4.472;2022-12-18T06:29:39;-1.47;74.84
66670;DHT22;53568;52.164;4.472;2022-12-18T06:32:04;-1.44;74.50
66670;DHT22;53568;52.164;4.472;2022-12-18T06:34:30;-1.47;74.23
66670;DHT22;53568;52.164;4.472;2022-12-18T06:36:55;-1.50;74.05
66670;DHT22;53568;52.164;4.472;2022-12-18T06:39:21;-1.57;73.93
66670;DHT22;53568;52.164;4.472;2022-12-18T06:41:46;-1.63;74.13
66670;DHT22;53568;52.164;4.472;2022-12-18T06:44:12;-1.70;74.03
66670;DHT22;53568;52.164;4.472;2022-12-18T06:46:37;-1.71;74.34
66670;DHT22;53568;52.164;4.472;2022-12-18T06:49:03;-1.71;74.13
66670;DHT22;53568;52.164;4.472;2022-12-18T06:51:29;-1.72;74.09
66670;DHT22;53568;52.164;4.472;2022-12-18T06:53:54;-1.77;73.99
66670;DHT22;53568;52.164;4.472;2022-12-18T06:56:20;-1.91;74.20
66670;DHT22;53568;52.164;4.472;2022-12-18T06:58:45;-1.87;73.95
66670;DHT22;53568;52.164;4.472;2022-12-18T07:01:12;-1.89;73.95
66670;DHT22;53568;52.164;4.472;2022-12-18T07:03:39;-1.85;74.15
66670;DHT22;53568;52.164;4.472;2022-12-18T07:06:06;-1.79;73.41
66670;DHT22;53568;52.164;4.472;2022-12-18T07:08:32;-1.88;72.88
66670;DHT22;53568;52.164;4.472;2022-12-18T07:10:58;-1.99;73.25
66670;DHT22;53568;52.164;4.472;2022-12-18T07:13:24;-2.05;73.50
66670;DHT22;53568;52.164;4.472;2022-12-18T07:15:49;-1.98;73.45
66670;DHT22;53568;52.164;4.472;2022-12-18T07:18:15;-2.02;73.21
66670;DHT22;53568;52.164;4.472;2022-12-18T07:20:40;-2.09;73.12
66670;DHT22;53568;52.164;4.472;2022-12-18T07:23:06;-2.25;73.77
66670;DHT22;53568;52.164;4.472;2022-12-18T07:25:36;-2.16;73.53
66670;DHT22;53568;52.164;4.472;2022-12-18T07:28:02;-2.12;73.28
66670;DHT22;53568;52.164;4.472;2022-12-18T07:30:28;-2.10;73.16
66670;DHT22;53568;52.164;4.472;2022-12-18T07:32:53;-2.13;72.80
66670;DHT22;53568;52.164;4.472;2022-12-18T07:35:18;-2.21;73.00
66670;DHT22;53568;52.164;4.472;2022-12-18T07:37:44;-2.26;73.39
66670;DHT22;53568;52.164;4.472;2022-12-18T07:40:10;-2.19;73.04
66670;DHT22;53568;52.164;4.472;2022-12-18T07:42:36;-2.26;73.41
66670;DHT22;53568;52.164;4.472;2022-12-18T07:45:02;-2.32;73.30
66670;DHT22;53568;52.164;4.472;2022-12-18T07:47:28;-2.26;73.27
66670;DHT22;53568;52.164;4.472;2022-12-18T07:49:54;-2.35;73.34
66670;DHT22;53568;52.164;4.472;2022-12-18T07:52:20;-2.31;73.44
66670;DHT22;53568;52.164;4.472;2022-12-18T07:54:47;-2.29;73.05
66670;DHT22;53568;52.164;4.472;2022-12-18T07:57:16;-2.36;73.58
66670;DHT22;53568;52.164;4.472;2022-12-18T07:59:41;-2.35;73.23
66670;DHT22;53568;52.164;4.472;2022-12-18T08:02:07;-2.38;73.28
66670;DHT22;53568;52.164;4.472;2022-12-18T08:04:32;-2.36;73.42
66670;DHT22;53568;52.164;4.472;2022-12-18T08:06:58;-2.35;73.58
66670;DHT22;53568;52.164;4.472;2022-12-18T08:09:23;-2.32;73.15
66670;DHT22;53568;52.164;4.472;2022-12-18T08:11:49;-2.49;73.57
66670;DHT22;53568;52.164;4.472;2022-12-18T08:14:14;-2.39;73.36
66670;DHT22;53568;52.164;4.472;2022-12-18T08:16:40;-2.36;73.36
66670;DHT22;53568;52.164;4.472;2022-12-18T08:19:05;-2.25;73.27
66670;DHT22;53568;52.164;4.472;2022-12-18T08:21:31;-2.16;72.74
66670;DHT22;53568;52.164;4.472;2022-12-18T08:23:59;-2.21;72.50
66670;DHT22;53568;52.164;4.472;2022-12-18T08:26:27;-2.25;72.77
66670;DHT22;53568;52.164;4.472;2022-12-18T08:28:55;-2.32;72.99
66670;DHT22;53568;52.164;4.472;2022-12-18T08:31:21;-2.35;73.50
66670;DHT22;53568;52.164;4.472;2022-12-18T08:33:52;-2.22;73.29
66670;DHT22;53568;52.164;4.472;2022-12-18T08:36:19;-2.22;73.16
66670;DHT22;53568;52.164;4.472;2022-12-18T08:38:45;-2.19;73.05
66670;DHT22;53568;52.164;4.472;2022-12-18T08:41:12;-2.22;73.23
66670;DHT22;53568;52.164;4.472;2022-12-18T08:43:38;-2.03;73.08
66670;DHT22;53568;52.164;4.472;2022-12-18T08:46:25;-2.03;72.61
66670;DHT22;53568;52.164;4.472;2022-12-18T08:48:52;-2.01;72.33
66670;DHT22;53568;52.164;4.472;2022-12-18T08:51:18;-2.06;72.43
66670;DHT22;53568;52.164;4.472;2022-12-18T08:53:45;-2.08;72.52
66670;DHT22;53568;52.164;4.472;2022-12-18T08:56:11;-2.15;72.81
66670;DHT22;53568;52.164;4.472;2022-12-18T08:58:37;-2.03;72.49
66670;DHT22;53568;52.164;4.472;2022-12-18T09:01:04;-2.12;72.85
66670;DHT22;53568;52.164;4.472;2022-12-18T09:03:30;-2.10;73.01
66670;DHT22;53568;52.164;4.472;2022-12-18T09:05:56;-2.19;73.18
66670;DHT22;53568;52.164;4.472;2022-12-18T09:08:23;-2.19;72.92
66670;DHT22;53568;52.164;4.472;2022-12-18T09:10:50;-2.16;73.07
66670;DHT22;53568;52.164;4.472;2022-12-18T09:13:17;-2.08;72.74
66670;DHT22;53568;52.164;4.472;2022-12-18T09:15:48;-1.97;72.59
66670;DHT22;53568;52.164;4.472;2022-12-18T09:18:16;-1.91;72.59
66670;DHT22;53568;52.164;4.472;2022-12-18T09:20:42;-1.88;72.51
66670;DHT22;53568;52.164;4.472;2022-12-18T09:23:08;-1.89;72.45
66670;DHT22;53568;52.164;4.472;2022-12-18T09:25:35;-1.95;72.52
66670;DHT22;53568;52.164;4.472;2022-12-18T09:28:12;-1.91;72.58
66670;DHT22;53568;52.164;4.472;2022-12-18T09:30:40;-1.88;72.81
66670;DHT22;53568;52.164;4.472;2022-12-18T09:33:05;-1.82;72.53
66670;DHT22;53568;52.164;4.472;2022-12-18T09:35:31;-1.81;72.39
66670;DHT22;53568;52.164;4.472;2022-12-18T09:37:56;-1.87;72.13
66670;DHT22;53568;52.164;4.472;2022-12-18T09:40:25;-1.88;72.25
66670;DHT22;53568;52.164;4.472;2022-12-18T09:42:57;-1.88;72.41
66670;DHT22;53568;52.164;4.472;2022-12-18T09:45:24;-1.88;72.88
66670;DHT22;53568;52.164;4.472;2022-12-18T09:47:52;-1.87;72.85
66670;DHT22;53568;52.164;4.472;2022-12-18T09:50:30;-1.79;72.43
66670;DHT22;53568;52.164;4.472;2022-12-18T09:53:04;-1.88;72.72
66670;DHT22;53568;52.164;4.472;2022-12-18T09:55:42;-1.84;72.97
66670;DHT22;53568;52.164;4.472;2022-12-18T09:58:35;-1.89;73.20
66670;DHT22;53568;52.164;4.472;2022-12-18T10:01:01;-1.87;72.88
66670;DHT22;53568;52.164;4.472;2022-12-18T10:03:27;-1.99;73.37
66670;DHT22;53568;52.164;4.472;2022-12-18T10:06:02;-1.91;73.17
66670;DHT22;53568;52.164;4.472;2022-12-18T10:14:04;-1.79;73.31
66670;DHT22;53568;52.164;4.472;2022-12-18T10:19:29;-1.72;73.31
66670;DHT22;53568;52.164;4.472;2022-12-18T10:24:55;-1.53;73.23
66670;DHT22;53568;52.164;4.472;2022-12-18T10:27:26;-1.44;72.94
66670;DHT22;53568;52.164;4.472;2022-12-18T10:29:52;-1.34;72.59
66670;DHT22;53568;52.164;4.472;2022-12-18T10:32:24;-1.34;72.51
66670;DHT22;53568;52.164;4.472;2022-12-18T10:34:51;-1.29;72.71
66670;DHT22;53568;52.164;4.472;2022-12-18T10:37:22;-1.24;72.83
66670;DHT22;53568;52.164;4.472;2022-12-18T10:42:34;-1.20;72.27
66670;DHT22;53568;52.164;4.472;2022-12-18T10:45:24;-1.09;71.98
66670;DHT22;53568;52.164;4.472;2022-12-18T10:47:50;-1.11;72.17
66670;DHT22;53568;52.164;4.472;2022-12-18T10:53:02;-0.99;72.07
66670;DHT22;53568;52.164;4.472;2022-12-18T10:55:35;-0.86;71.55
66670;DHT22;53568;52.164;4.472;2022-12-18T10:58:28;-0.82;71.45
66670;DHT22;53568;52.164;4.472;2022-12-18T11:01:07;-0.85;71.70
66670;DHT22;53568;52.164;4.472;2022-12-18T11:03:59;-0.95;71.85
66670;DHT22;53568;52.164;4.472;2022-12-18T11:06:25;-0.79;71.65
66670;DHT22;53568;52.164;4.472;2022-12-18T11:09:02;-0.87;71.44
66670;DHT22;53568;52.164;4.472;2022-12-18T11:11:28;-0.76;71.39
66670;DHT22;53568;52.164;4.472;2022-12-18T11:14:19;-0.73;71.31
66670;DHT22;53568;52.164;4.472;2022-12-18T11:16:49;-0.68;71.10
66670;DHT22;53568;52.164;4.472;2022-12-18T11:19:27;-0.66;70.70
66670;DHT22;53568;52.164;4.472;2022-12-18T11:21:54;-0.69;71.08
66670;DHT22;53568;52.164;4.472;2022-12-18T11:24:32;-0.73;71.43
66670;DHT22;53568;52.164;4.472;2022-12-18T11:27:03;-0.72;71.34
66670;DHT22;53568;52.164;4.472;2022-12-18T11:29:39;-0.75;71.83
66670;DHT22;53568;52.164;4.472;2022-12-18T11:32:27;-0.58;71.29
66670;DHT22;53568;52.164;4.472;2022-12-18T11:35:04;-0.69;71.56
66670;DHT22;53568;52.164;4.472;2022-12-18T11:37:36;-0.76;71.34
66670;DHT22;53568;52.164;4.472;2022-12-18T11:40:27;-0.62;71.38
66670;DHT22;53568;52.164;4.472;2022-12-18T11:43:10;-0.75;72.04
66670;DHT22;53568;52.164;4.472;2022-12-18T11:45:48;-0.68;71.72
66670;DHT22;53568;52.164;4.472;2022-12-18T11:50:53;-0.79;72.52
66670;DHT22;53568;52.164;4.472;2022-12-18T11:53:20;-0.72;72.52
66670;DHT22;53568;52.164;4.472;2022-12-18T11:59:15;-0.51;72.12
66670;DHT22;53568;52.164;4.472;2022-12-18T12:01:52;-0.55;72.11
66670;DHT22;53568;52.164;4.472;2022-12-18T12:07:12;-0.39;71.97
66670;DHT22;53568;52.164;4.472;2022-12-18T12:23:39;-0.43;71.82
66670;DHT22;53568;52.164;4.472;2022-12-18T12:34:46;-0.19;72.22
66670;DHT22;53568;52.164;4.472;2022-12-18T12:38:16;-0.18;72.22
66670;DHT22;53568;52.164;4.472;2022-12-18T12:40:17;-0.14;72.30
66670;DHT22;53568;52.164;4.472;2022-12-18T12:42:52;-0.18;72.39
66670;DHT22;53568;52.164;4.472;2022-12-18T12:51:06;-0.07;72.36
66670;DHT22;53568;52.164;4.472;2022-12-18T12:53:37;-0.10;72.24
66670;DHT22;53568;52.164;4.472;2022-12-18T12:56:05;-0.07;72.21
66670;DHT22;53568;52.164;4.472;2022-12-18T13:06:49;-0.04;72.60
66670;DHT22;53568;52.164;4.472;2022-12-18T13:09:18;-0.22;73.18
66670;DHT22;53568;52.164;4.472;2022-12-18T13:11:45;-0.19;73.29
66670;DHT22;53568;52.164;4.472;2022-12-18T13:14:35;-0.15;73.26
66670;DHT22;53568;52.164;4.472;2022-12-18T13:19:51;0.06;72.88
66670;DHT22;53568;52.164;4.472;2022-12-18T13:22:35;0.22;72.29
66670;DHT22;53568;52.164;4.472;2022-12-18T13:25:01;0.07;72.58
66670;DHT22;53568;52.164;4.472;2022-12-18T13:36:04;0.24;72.49
66670;DHT22;53568;52.164;4.472;2022-12-18T13:38:36;0.29;72.34
66670;DHT22;53568;52.164;4.472;2022-12-18T13:41:24;0.29;72.08
66670;DHT22;53568;52.164;4.472;2022-12-18T13:43:51;0.29;72.27
66670;DHT22;53568;52.164;4.472;2022-12-18T13:49:21;0.29;72.39
66670;DHT22;53568;52.164;4.472;2022-12-18T13:51:50;0.39;71.95
66670;DHT22;53568;52.164;4.472;2022-12-18T13:56:50;0.29;72.57
66670;DHT22;53568;52.164;4.472;2022-12-18T13:59:22;0.19;72.90
66670;DHT22;53568;52.164;4.472;2022-12-18T14:01:54;0.26;72.62
66670;DHT22;53568;52.164;4.472;2022-12-18T14:04:29;0.14;73.13
66670;DHT22;53568;52.164;4.472;2022-12-18T14:07:05;0.33;72.63
66670;DHT22;53568;52.164;4.472;2022-12-18T14:09:37;0.13;72.94
66670;DHT22;53568;52.164;4.472;2022-12-18T14:12:05;0.23;72.66
66670;DHT22;53568;52.164;4.472;2022-12-18T14:14:52;0.19;72.81
66670;DHT22;53568;52.164;4.472;2022-12-18T14:17:19;0.44;72.47
66670;DHT22;53568;52.164;4.472;2022-12-18T14:19:50;0.50;71.95
66670;DHT22;53568;52.164;4.472;2022-12-18T14:22:23;0.44;71.94
66670;DHT22;53568;52.164;4.472;2022-12-18T14:27:44;0.39;72.46
66670;DHT22;53568;52.164;4.472;2022-12-18T14:35:58;0.42;71.90
66670;DHT22;53568;52.164;4.472;2022-12-18T14:38:32;0.36;72.17
66670;DHT22;53568;52.164;4.472;2022-12-18T14:43:33;0.49;71.93
66670;DHT22;53568;52.164;4.472;2022-12-18T14:46:01;0.46;71.96
66670;DHT22;53568;52.164;4.472;2022-12-18T14:51:19;0.39;72.16
66670;DHT22;53568;52.164;4.472;2022-12-18T14:54:03;0.43;72.10
66670;DHT22;53568;52.164;4.472;2022-12-18T14:56:44;0.53;71.72
66670;DHT22;53568;52.164;4.472;2022-12-18T14:59:24;0.49;71.69
66670;DHT22;53568;52.164;4.472;2022-12-18T15:01:59;0.54;71.54
66670;DHT22;53568;52.164;4.472;2022-12-18T15:04:38;0.57;71.23
66670;DHT22;53568;52.164;4.472;2022-12-18T15:07:16;0.60;71.13
66670;DHT22;53568;52.164;4.472;2022-12-18T15:09:44;0.61;71.22
66670;DHT22;53568;52.164;4.472;2022-12-18T15:14:59;0.57;71.16
66670;DHT22;53568;52.164;4.472;2022-12-18T15:17:25;0.56;71.03
66670;DHT22;53568;52.164;4.472;2022-12-18T15:20:01;0.53;71.05
66670;DHT22;53568;52.164;4.472;2022-12-18T15:22:34;0.56;71.08
66670;DHT22;53568;52.164;4.472;2022-12-18T15:25:03;0.61;71.11
66670;DHT22;53568;52.164;4.472;2022-12-18T15:27:36;0.64;71.05
66670;DHT22;53568;52.164;4.472;2022-12-18T15:32:38;0.57;71.59
66670;DHT22;53568;52.164;4.472;2022-12-18T15:37:37;0.61;71.20
66670;DHT22;53568;52.164;4.472;2022-12-18T15:40:03;0.52;71.63
66670;DHT22;53568;52.164;4.472;2022-12-18T15:42:30;0.37;71.97
66670;DHT22;53568;52.164;4.472;2022-12-18T15:45:14;0.57;71.69
66670;DHT22;53568;52.164;4.472;2022-12-18T15:47:41;0.50;72.03
66670;DHT22;53568;52.164;4.472;2022-12-18T15:50:08;0.63;71.73
66670;DHT22;53568;52.164;4.472;2022-12-18T15:52:40;0.66;71.74
66670;DHT22;53568;52.164;4.472;2022-12-18T15:55:13;0.56;72.32
66670;DHT22;53568;52.164;4.472;2022-12-18T15:57:57;0.66;71.93
66670;DHT22;53568;52.164;4.472;2022-12-18T16:00:22;0.66;72.22
66670;DHT22;53568;52.164;4.472;2022-12-18T16:02:48;0.63;72.23
66670;DHT22;53568;52.164;4.472;2022-12-18T16:05:15;0.63;72.15
66670;DHT22;53568;52.164;4.472;2022-12-18T16:07:43;0.53;72.74
66670;DHT22;53568;52.164;4.472;2022-12-18T16:10:09;0.53;72.85
66670;DHT22;53568;52.164;4.472;2022-12-18T16:12:35;0.42;73.43
66670;DHT22;53568;52.164;4.472;2022-12-18T16:15:01;0.50;73.15
66670;DHT22;53568;52.164;4.472;2022-12-18T16:17:27;0.64;72.74
66670;DHT22;53568;52.164;4.472;2022-12-18T16:19:53;0.52;73.27
66670;DHT22;53568;52.164;4.472;2022-12-18T16:22:24;0.58;72.96
66670;DHT22;53568;52.164;4.472;2022-12-18T16:24:52;0.68;72.87
66670;DHT22;53568;52.164;4.472;2022-12-18T16:27:19;0.61;72.83
66670;DHT22;53568;52.164;4.472;2022-12-18T16:29:44;0.53;73.45
66670;DHT22;53568;52.164;4.472;2022-12-18T16:32:28;0.63;73.13
66670;DHT22;53568;52.164;4.472;2022-12-18T16:34:59;0.63;73.17
66670;DHT22;53568;52.164;4.472;2022-12-18T16:37:25;0.64;73.19
66670;DHT22;53568;52.164;4.472;2022-12-18T16:39:52;0.61;73.12
66670;DHT22;53568;52.164;4.472;2022-12-18T16:42:18;0.78;72.77
66670;DHT22;53568;52.164;4.472;2022-12-18T16:44:46;0.76;72.88
66670;DHT22;53568;52.164;4.472;2022-12-18T16:47:12;0.74;72.91
66670;DHT22;53568;52.164;4.472;2022-12-18T16:49:37;0.73;72.88
66670;DHT22;53568;52.164;4.472;2022-12-18T16:52:05;0.67;73.20
66670;DHT22;53568;52.164;4.472;2022-12-18T16:54:30;0.71;73.23
66670;DHT22;53568;52.164;4.472;2022-12-18T16:56:58;0.76;73.23
66670;DHT22;53568;52.164;4.472;2022-12-18T16:59:25;0.85;72.89
66670;DHT22;53568;52.164;4.472;2022-12-18T17:01:51;0.80;72.93
66670;DHT22;53568;52.164;4.472;2022-12-18T17:04:17;0.77;73.19
66670;DHT22;53568;52.164;4.472;2022-12-18T17:06:45;0.81;72.91
66670;DHT22;53568;52.164;4.472;2022-12-18T17:09:17;0.83;72.75
66670;DHT22;53568;52.164;4.472;2022-12-18T17:11:46;0.94;72.54
66670;DHT22;53568;52.164;4.472;2022-12-18T17:14:18;1.00;72.48
66670;DHT22;53568;52.164;4.472;2022-12-18T17:16:44;0.78;72.78
66670;DHT22;53568;52.164;4.472;2022-12-18T17:19:11;0.90;72.80
66670;DHT22;53568;52.164;4.472;2022-12-18T17:21:37;0.85;72.79
66670;DHT22;53568;52.164;4.472;2022-12-18T17:24:03;0.94;72.72
66670;DHT22;53568;52.164;4.472;2022-12-18T17:26:28;1.02;72.46
66670;DHT22;53568;52.164;4.472;2022-12-18T17:28:58;0.98;72.47
66670;DHT22;53568;52.164;4.472;2022-12-18T17:31:26;0.91;72.77
66670;DHT22;53568;52.164;4.472;2022-12-18T17:33:52;1.05;72.40
66670;DHT22;53568;52.164;4.472;2022-12-18T17:36:19;1.02;72.43
66670;DHT22;53568;52.164;4.472;2022-12-18T17:38:56;1.08;72.22
66670;DHT22;53568;52.164;4.472;2022-12-18T17:41:23;1.20;72.00
66670;DHT22;53568;52.164;4.472;2022-12-18T17:43:53;1.25;71.85
66670;DHT22;53568;52.164;4.472;2022-12-18T17:46:19;1.30;71.89
66670;DHT22;53568;52.164;4.472;2022-12-18T17:48:45;1.31;71.60
66670;DHT22;53568;52.164;4.472;2022-12-18T17:51:11;1.32;71.56
66670;DHT22;53568;52.164;4.472;2022-12-18T17:53:37;1.38;71.54
66670;DHT22;53568;52.164;4.472;2022-12-18T17:56:04;1.45;71.32
66670;DHT22;53568;52.164;4.472;2022-12-18T17:58:32;1.46;71.27
66670;DHT22;53568;52.164;4.472;2022-12-18T18:00:58;1.49;70.99
66670;DHT22;53568;52.164;4.472;2022-12-18T18:03:24;1.54;70.72